sensor_id;sensor_type;location;lat;lon;timestamp;pressure;altitude;pressure_sealevel;temperature;humidity
49973;BME280;65693;49.798;10.968;2023-02-19T00:01:17;98475.50;;;11.60;64.73
49973;BME280;65693;49.798;10.968;2023-02-19T00:03:47;98473.16;;;11.56;64.74
49973;BME280;65693;49.798;10.968;2023-02-19T00:06:14;98474.97;;;11.55;64.94
49973;BME280;65693;49.798;10.968;2023-02-19T00:08:41;98476.75;;;11.55;64.87
49973;BME280;65693;49.798;10.968;2023-02-19T00:11:11;98471.56;;;11.53;65.05
49973;BME280;65693;49.798;10.968;2023-02-19T00:13:39;98474.97;;;11.55;64.87
49973;BME280;65693;49.798;10.968;2023-02-19T00:16:07;98474.22;;;11.53;64.89
49973;BME280;65693;49.798;10.968;2023-02-19T00:18:34;98476.66;;;11.56;64.79
49973;BME280;65693;49.798;10.968;2023-02-19T00:21:00;98477.81;;;11.52;65.05
49973;BME280;65693;49.798;10.968;2023-02-19T00:23:27;98469.00;;;11.51;64.76
49973;BME280;65693;49.798;10.968;2023-02-19T00:25:53;98461.97;;;11.50;65.02
49973;BME280;65693;49.798;10.968;2023-02-19T00:28:21;98463.00;;;11.48;64.90
49973;BME280;65693;49.798;10.968;2023-02-19T00:30:48;98447.09;;;11.48;65.02
49973;BME280;65693;49.798;10.968;2023-02-19T00:33:15;98441.78;;;11.48;65.01
49973;BME280;65693;49.798;10.968;2023-02-19T00:35:41;98449.66;;;11.49;64.80
49973;BME280;65693;49.798;10.968;2023-02-19T00:38:07;98437.34;;;11.48;64.87
49973;BME280;65693;49.798;10.968;2023-02-19T00:40:34;98442.84;;;11.45;64.98
49973;BME280;65693;49.798;10.968;2023-02-19T00:43:00;98445.38;;;11.47;64.93
49973;BME280;65693;49.798;10.968;2023-02-19T00:45:28;98434.03;;;11.45;65.06
49973;BME280;65693;49.798;10.968;2023-02-19T00:47:54;98436.69;;;11.45;64.86
49973;BME280;65693;49.798;10.968;2023-02-19T00:50:21;98447.41;;;11.43;64.94
49973;BME280;65693;49.798;10.968;2023-02-19T00:52:47;98451.97;;;11.41;65.04
49973;BME280;65693;49.798;10.968;2023-02-19T00:55:14;98445.72;;;11.42;65.05
49973;BME280;65693;49.798;10.968;2023-02-19T00:57:40;98443.06;;;11.42;64.91
49973;BME280;65693;49.798;10.968;2023-02-19T01:00:08;98432.59;;;11.39;64.99
49973;BME280;65693;49.798;10.968;2023-02-19T01:02:36;98423.69;;;11.40;65.09
49973;BME280;65693;49.798;10.968;2023-02-19T01:05:02;98426.34;;;11.40;65.00
49973;BME280;65693;49.798;10.968;2023-02-19T01:07:29;98429.94;;;11.39;64.95
49973;BME280;65693;49.798;10.968;2023-02-19T01:09:56;98407.91;;;11.38;64.91
49973;BME280;65693;49.798;10.968;2023-02-19T01:12:22;98416.88;;;11.36;65.00
49973;BME280;65693;49.798;10.968;2023-02-19T01:14:49;98407.34;;;11.33;65.09
49973;BME280;65693;49.798;10.968;2023-02-19T01:17:16;98404.84;;;11.30;65.24
49973;BME280;65693;49.798;10.968;2023-02-19T01:19:44;98410.09;;;11.32;65.25
49973;BME280;65693;49.798;10.968;2023-02-19T01:22:10;98404.78;;;11.32;65.14
49973;BME280;65693;49.798;10.968;2023-02-19T01:24:36;98398.53;;;11.33;65.11
49973;BME280;65693;49.798;10.968;2023-02-19T01:27:03;98395.78;;;11.34;65.12
49973;BME280;65693;49.798;10.968;2023-02-19T01:29:29;98389.69;;;11.32;65.08
49973;BME280;65693;49.798;10.968;2023-02-19T01:31:56;98379.28;;;11.29;65.12
49973;BME280;65693;49.798;10.968;2023-02-19T01:34:22;98371.25;;;11.31;64.96
49973;BME280;65693;49.798;10.968;2023-02-19T01:36:50;98377.38;;;11.31;65.00
49973;BME280;65693;49.798;10.968;2023-02-19T01:39:16;98377.56;;;11.28;65.26
49973;BME280;65693;49.798;10.968;2023-02-19T01:41:43;98372.56;;;11.23;65.29
49973;BME280;65693;49.798;10.968;2023-02-19T01:47:09;98371.53;;;11.26;65.23
49973;BME280;65693;49.798;10.968;2023-02-19T01:49:39;98371.53;;;11.26;65.28
49973;BME280;65693;49.798;10.968;2023-02-19T01:52:18;98367.38;;;11.22;65.13
49973;BME280;65693;49.798;10.968;2023-02-19T01:54:48;98359.50;;;11.20;65.25
49973;BME280;65693;49.798;10.968;2023-02-19T01:57:19;98349.00;;;11.19;65.22
49973;BME280;65693;49.798;10.968;2023-02-19T01:59:49;98352.28;;;11.22;65.22
49973;BME280;65693;49.798;10.968;2023-02-19T02:02:19;98351.47;;;11.22;65.20
49973;BME280;65693;49.798;10.968;2023-02-19T02:04:45;98359.50;;;11.20;65.29
49973;BME280;65693;49.798;10.968;2023-02-19T02:07:13;98356.09;;;11.18;65.25
49973;BME280;65693;49.798;10.968;2023-02-19T02:09:54;98355.34;;;11.16;65.19
49973;BME280;65693;49.798;10.968;2023-02-19T02:12:38;98352.63;;;11.18;65.12
49973;BME280;65693;49.798;10.968;2023-02-19T02:15:05;98347.09;;;11.21;65.20
49973;BME280;65693;49.798;10.968;2023-02-19T02:17:39;98341.13;;;11.17;65.14
49973;BME280;65693;49.798;10.968;2023-02-19T02:20:32;98339.53;;;11.15;65.44
49973;BME280;65693;49.798;10.968;2023-02-19T02:23:08;98336.78;;;11.16;65.21
49973;BME280;65693;49.798;10.968;2023-02-19T02:26:05;98332.34;;;11.17;65.14
49973;BME280;65693;49.798;10.968;2023-02-19T02:28:56;98322.84;;;11.13;65.31
49973;BME280;65693;49.798;10.968;2023-02-19T02:31:32;98316.81;;;11.10;65.20
49973;BME280;65693;49.798;10.968;2023-02-19T02:34:05;98318.41;;;11.13;65.20
49973;BME280;65693;49.798;10.968;2023-02-19T02:36:35;98317.34;;;11.16;65.26
49973;BME280;65693;49.798;10.968;2023-02-19T02:39:03;98324.75;;;11.10;65.58
49973;BME280;65693;49.798;10.968;2023-02-19T02:41:32;98311.50;;;11.10;65.33
49973;BME280;65693;49.798;10.968;2023-02-19T02:43:59;98317.56;;;11.13;65.13
49973;BME280;65693;49.798;10.968;2023-02-19T02:46:27;98314.06;;;11.12;65.19
49973;BME280;65693;49.798;10.968;2023-02-19T02:48:57;98310.53;;;11.12;65.19
49973;BME280;65693;49.798;10.968;2023-02-19T02:51:31;98310.66;;;11.10;65.18
49973;BME280;65693;49.798;10.968;2023-02-19T02:54:01;98308.00;;;11.10;65.32
49973;BME280;65693;49.798;10.968;2023-02-19T02:56:47;98301.19;;;11.06;65.21
49973;BME280;65693;49.798;10.968;2023-02-19T02:59:18;98301.09;;;11.07;65.27
49973;BME280;65693;49.798;10.968;2023-02-19T03:01:49;98304.69;;;11.06;65.24
49973;BME280;65693;49.798;10.968;2023-02-19T03:04:40;98295.13;;;11.04;65.63
49973;BME280;65693;49.798;10.968;2023-02-19T03:07:23;98307.34;;;11.06;65.37
49973;BME280;65693;49.798;10.968;2023-02-19T03:09:51;98299.59;;;11.03;65.39
49973;BME280;65693;49.798;10.968;2023-02-19T03:12:19;98296.09;;;11.03;65.38
49973;BME280;65693;49.798;10.968;2023-02-19T03:15:07;98288.13;;;11.03;65.34
49973;BME280;65693;49.798;10.968;2023-02-19T03:17:55;98291.53;;;11.05;65.22
49973;BME280;65693;49.798;10.968;2023-02-19T03:20:45;98283.78;;;11.02;65.49
49973;BME280;65693;49.798;10.968;2023-02-19T03:23:13;98282.94;;;11.01;65.43
49973;BME280;65693;49.798;10.968;2023-02-19T03:25:41;98282.94;;;11.01;65.44
49973;BME280;65693;49.798;10.968;2023-02-19T03:28:27;98283.09;;;10.98;65.42
49973;BME280;65693;49.798;10.968;2023-02-19T03:31:14;98274.53;;;10.94;65.36
49973;BME280;65693;49.798;10.968;2023-02-19T03:33:44;98275.34;;;10.95;65.63
49973;BME280;65693;49.798;10.968;2023-02-19T03:36:14;98278.97;;;10.94;65.44
49973;BME280;65693;49.798;10.968;2023-02-19T03:38:42;98273.00;;;10.90;65.42
49973;BME280;65693;49.798;10.968;2023-02-19T03:41:18;98286.38;;;10.89;65.57
49973;BME280;65693;49.798;10.968;2023-02-19T03:43:51;98274.28;;;10.85;65.78
49973;BME280;65693;49.798;10.968;2023-02-19T03:46:25;98279.38;;;10.88;65.60
49973;BME280;65693;49.798;10.968;2023-02-19T03:49:03;98279.25;;;10.89;65.38
49973;BME280;65693;49.798;10.968;2023-02-19T03:51:38;98265.25;;;10.87;65.41
49973;BME280;65693;49.798;10.968;2023-02-19T03:54:12;98266.47;;;10.81;65.64
49973;BME280;65693;49.798;10.968;2023-02-19T03:56:44;98271.41;;;10.88;65.66
49973;BME280;65693;49.798;10.968;2023-02-19T03:59:16;98275.31;;;10.82;65.86
49973;BME280;65693;49.798;10.968;2023-02-19T04:01:46;98269.13;;;10.81;65.77
49973;BME280;65693;49.798;10.968;2023-02-19T04:04:16;98264.91;;;10.79;65.91
49973;BME280;65693;49.798;10.968;2023-02-19T04:06:49;98284.22;;;10.81;65.76
49973;BME280;65693;49.798;10.968;2023-02-19T04:09:18;98279.84;;;10.80;65.88
49973;BME280;65693;49.798;10.968;2023-02-19T04:11:46;98278.25;;;10.77;65.91
49973;BME280;65693;49.798;10.968;2023-02-19T04:14:16;98278.78;;;10.82;65.67
49973;BME280;65693;49.798;10.968;2023-02-19T04:16:46;98281.75;;;10.78;65.98
49973;BME280;65693;49.798;10.968;2023-02-19T04:19:17;98276.53;;;10.76;65.92
49973;BME280;65693;49.798;10.968;2023-02-19T04:21:49;98274.84;;;10.75;66.02
49973;BME280;65693;49.798;10.968;2023-02-19T04:24:20;98268.59;;;10.76;65.96
49973;BME280;65693;49.798;10.968;2023-02-19T04:26:48;98274.75;;;10.77;65.93
49973;BME280;65693;49.798;10.968;2023-02-19T04:29:14;98270.56;;;10.73;66.00
49973;BME280;65693;49.798;10.968;2023-02-19T04:31:41;98271.34;;;10.75;65.72
49973;BME280;65693;49.798;10.968;2023-02-19T04:34:07;98280.44;;;10.71;66.05
49973;BME280;65693;49.798;10.968;2023-02-19T04:36:34;98281.47;;;10.68;66.07
49973;BME280;65693;49.798;10.968;2023-02-19T04:39:01;98289.50;;;10.66;66.06
49973;BME280;65693;49.798;10.968;2023-02-19T04:41:28;98283.06;;;10.71;65.96
49973;BME280;65693;49.798;10.968;2023-02-19T04:43:54;98290.94;;;10.72;65.73
49973;BME280;65693;49.798;10.968;2023-02-19T04:46:21;98285.66;;;10.72;65.82
49973;BME280;65693;49.798;10.968;2023-02-19T04:48:47;98299.84;;;10.71;65.92
49973;BME280;65693;49.798;10.968;2023-02-19T04:51:13;98289.25;;;10.71;65.85
49973;BME280;65693;49.798;10.968;2023-02-19T04:53:40;98289.41;;;10.68;66.02
49973;BME280;65693;49.798;10.968;2023-02-19T04:56:09;98291.13;;;10.69;65.80
49973;BME280;65693;49.798;10.968;2023-02-19T04:58:36;98293.19;;;10.64;66.09
49973;BME280;65693;49.798;10.968;2023-02-19T05:01:03;98299.16;;;10.67;65.65
49973;BME280;65693;49.798;10.968;2023-02-19T05:03:29;98295.84;;;10.64;65.86
49973;BME280;65693;49.798;10.968;2023-02-19T05:05:56;98292.16;;;10.66;65.95
49973;BME280;65693;49.798;10.968;2023-02-19T05:08:22;98300.19;;;10.65;66.11
49973;BME280;65693;49.798;10.968;2023-02-19T05:10:49;98289.59;;;10.65;65.98
49973;BME280;65693;49.798;10.968;2023-02-19T05:13:16;98290.72;;;10.61;66.26
49973;BME280;65693;49.798;10.968;2023-02-19T05:15:53;98295.94;;;10.62;66.15
49973;BME280;65693;49.798;10.968;2023-02-19T05:18:19;98291.47;;;10.63;66.20
49973;BME280;65693;49.798;10.968;2023-02-19T05:20:46;98281.06;;;10.60;66.09
49973;BME280;65693;49.798;10.968;2023-02-19T05:23:12;98288.19;;;10.59;66.23
49973;BME280;65693;49.798;10.968;2023-02-19T05:25:38;98289.78;;;10.62;65.93
49973;BME280;65693;49.798;10.968;2023-02-19T05:28:05;98288.19;;;10.59;66.05
49973;BME280;65693;49.798;10.968;2023-02-19T05:30:43;98288.19;;;10.59;66.33
49973;BME280;65693;49.798;10.968;2023-02-19T05:33:10;98293.38;;;10.61;66.01
49973;BME280;65693;49.798;10.968;2023-02-19T05:35:39;98292.63;;;10.59;66.13
49973;BME280;65693;49.798;10.968;2023-02-19T05:38:06;98295.28;;;10.59;66.17
49973;BME280;65693;49.798;10.968;2023-02-19T05:40:32;98307.78;;;10.57;66.09
49973;BME280;65693;49.798;10.968;2023-02-19T05:42:59;98297.94;;;10.59;66.06
49973;BME280;65693;49.798;10.968;2023-02-19T05:45:25;98299.75;;;10.58;66.19
49973;BME280;65693;49.798;10.968;2023-02-19T05:47:53;98298.78;;;10.59;66.07
49973;BME280;65693;49.798;10.968;2023-02-19T05:50:19;98308.53;;;10.59;66.17
49973;BME280;65693;49.798;10.968;2023-02-19T05:52:46;98311.19;;;10.59;65.86
49973;BME280;65693;49.798;10.968;2023-02-19T05:55:12;98310.34;;;10.58;65.92
49973;BME280;65693;49.798;10.968;2023-02-19T05:57:39;98308.72;;;10.56;66.10
49973;BME280;65693;49.798;10.968;2023-02-19T06:00:08;98293.66;;;10.56;65.96
49973;BME280;65693;49.798;10.968;2023-02-19T06:02:35;98308.63;;;10.57;65.98
49973;BME280;65693;49.798;10.968;2023-02-19T06:05:03;98302.69;;;10.53;65.94
49973;BME280;65693;49.798;10.968;2023-02-19T06:07:30;98309.09;;;10.49;66.25
49973;BME280;65693;49.798;10.968;2023-02-19T06:09:56;98316.88;;;10.52;66.11
49973;BME280;65693;49.798;10.968;2023-02-19T06:12:23;98311.56;;;10.52;65.98
49973;BME280;65693;49.798;10.968;2023-02-19T06:14:49;98318.78;;;10.50;66.27
49973;BME280;65693;49.798;10.968;2023-02-19T06:17:16;98316.97;;;10.51;66.27
49973;BME280;65693;49.798;10.968;2023-02-19T06:19:42;98317.72;;;10.53;66.18
49973;BME280;65693;49.798;10.968;2023-02-19T06:22:10;98327.56;;;10.51;66.01
49973;BME280;65693;49.798;10.968;2023-02-19T06:24:36;98313.63;;;10.47;66.34
49973;BME280;65693;49.798;10.968;2023-02-19T06:27:04;98314.31;;;10.51;66.23
49973;BME280;65693;49.798;10.968;2023-02-19T06:29:31;98305.69;;;10.47;66.19
49973;BME280;65693;49.798;10.968;2023-02-19T06:31:58;98313.47;;;10.36;66.28
49973;BME280;65693;49.798;10.968;2023-02-19T06:34:24;98322.38;;;10.35;66.22
49973;BME280;65693;49.798;10.968;2023-02-19T06:36:51;98332.16;;;10.33;66.26
49973;BME280;65693;49.798;10.968;2023-02-19T06:39:19;98323.31;;;10.34;66.20
49973;BME280;65693;49.798;10.968;2023-02-19T06:41:45;98325.66;;;10.38;66.16
49973;BME280;65693;49.798;10.968;2023-02-19T06:44:12;98333.13;;;10.32;66.07
49973;BME280;65693;49.798;10.968;2023-02-19T06:46:38;98337.47;;;10.33;66.07
49973;BME280;65693;49.798;10.968;2023-02-19T06:49:04;98348.66;;;10.38;65.86
49973;BME280;65693;49.798;10.968;2023-02-19T06:51:31;98353.84;;;10.39;66.01
49973;BME280;65693;49.798;10.968;2023-02-19T06:53:58;98358.97;;;10.43;66.32
49973;BME280;65693;49.798;10.968;2023-02-19T06:56:29;98359.63;;;10.46;66.28
49973;BME280;65693;49.798;10.968;2023-02-19T06:58:57;98367.50;;;10.48;66.54
49973;BME280;65693;49.798;10.968;2023-02-19T07:01:25;98375.16;;;10.52;66.86
49973;BME280;65693;49.798;10.968;2023-02-19T07:03:52;98384.72;;;10.55;66.24
49973;BME280;65693;49.798;10.968;2023-02-19T07:06:19;98376.59;;;10.58;66.58
49973;BME280;65693;49.798;10.968;2023-02-19T07:08:46;98383.50;;;10.61;66.38
49973;BME280;65693;49.798;10.968;2023-02-19T07:11:12;98383.50;;;10.61;66.72
49973;BME280;65693;49.798;10.968;2023-02-19T07:13:40;98394.84;;;10.63;66.21
49973;BME280;65693;49.798;10.968;2023-02-19T07:16:08;98393.91;;;10.64;66.21
49973;BME280;65693;49.798;10.968;2023-02-19T07:18:35;98393.81;;;10.65;66.25
49973;BME280;65693;49.798;10.968;2023-02-19T07:21:02;98397.31;;;10.66;66.45
49973;BME280;65693;49.798;10.968;2023-02-19T07:23:29;98399.94;;;10.66;66.59
49973;BME280;65693;49.798;10.968;2023-02-19T07:25:56;98407.81;;;10.67;66.03
49973;BME280;65693;49.798;10.968;2023-02-19T07:28:22;98410.47;;;10.67;66.59
49973;BME280;65693;49.798;10.968;2023-02-19T07:30:50;98406.88;;;10.68;66.42
49973;BME280;65693;49.798;10.968;2023-02-19T07:33:17;98411.41;;;10.66;66.50
49973;BME280;65693;49.798;10.968;2023-02-19T07:35:47;98404.34;;;10.67;66.59
49973;BME280;65693;49.798;10.968;2023-02-19T07:38:14;98411.41;;;10.66;66.63
49973;BME280;65693;49.798;10.968;2023-02-19T07:40:42;98422.88;;;10.67;66.90
49973;BME280;65693;49.798;10.968;2023-02-19T07:43:15;98426.38;;;10.67;66.77
49973;BME280;65693;49.798;10.968;2023-02-19T07:45:41;98420.25;;;10.67;66.84
49973;BME280;65693;49.798;10.968;2023-02-19T07:48:09;98420.25;;;10.67;66.44
49973;BME280;65693;49.798;10.968;2023-02-19T07:50:35;98421.94;;;10.68;66.40
49973;BME280;65693;49.798;10.968;2023-02-19T07:53:02;98425.09;;;10.75;66.25
49973;BME280;65693;49.798;10.968;2023-02-19T07:55:30;98432.94;;;10.76;66.57
49973;BME280;65693;49.798;10.968;2023-02-19T07:57:56;98429.53;;;10.74;66.44
49973;BME280;65693;49.798;10.968;2023-02-19T08:00:23;98431.25;;;10.75;66.48
49973;BME280;65693;49.798;10.968;2023-02-19T08:02:50;98436.53;;;10.75;66.77
49973;BME280;65693;49.798;10.968;2023-02-19T08:05:25;98439.38;;;10.72;66.71
49973;BME280;65693;49.798;10.968;2023-02-19T08:07:52;98435.03;;;10.71;66.75
49973;BME280;65693;49.798;10.968;2023-02-19T08:10:19;98441.25;;;10.70;66.69
49973;BME280;65693;49.798;10.968;2023-02-19T08:13:03;98442.13;;;10.71;66.66
49973;BME280;65693;49.798;10.968;2023-02-19T08:15:47;98446.56;;;10.70;66.70
49973;BME280;65693;49.798;10.968;2023-02-19T08:18:14;98441.25;;;10.70;66.50
49973;BME280;65693;49.798;10.968;2023-02-19T08:20:42;98445.69;;;10.70;66.64
49973;BME280;65693;49.798;10.968;2023-02-19T08:23:10;98439.56;;;10.69;66.50
49973;BME280;65693;49.798;10.968;2023-02-19T08:25:37;98439.19;;;10.75;66.27
49973;BME280;65693;49.798;10.968;2023-02-19T08:28:04;98435.50;;;10.78;66.83
49973;BME280;65693;49.798;10.968;2023-02-19T08:30:31;98451.31;;;10.79;66.46
49973;BME280;65693;49.798;10.968;2023-02-19T08:32:58;98454.91;;;10.78;66.61
49973;BME280;65693;49.798;10.968;2023-02-19T08:35:27;98458.50;;;10.77;66.27
49973;BME280;65693;49.798;10.968;2023-02-19T08:37:55;98468.28;;;10.77;66.55
49973;BME280;65693;49.798;10.968;2023-02-19T08:40:22;98471.00;;;10.75;66.30
49973;BME280;65693;49.798;10.968;2023-02-19T08:42:49;98471.00;;;10.75;66.50
49973;BME280;65693;49.798;10.968;2023-02-19T08:45:15;98472.81;;;10.75;66.71
49973;BME280;65693;49.798;10.968;2023-02-19T08:47:42;98473.75;;;10.74;66.38
49973;BME280;65693;49.798;10.968;2023-02-19T08:50:09;98477.34;;;10.73;66.30
49973;BME280;65693;49.798;10.968;2023-02-19T08:52:36;98481.81;;;10.72;66.48
49973;BME280;65693;49.798;10.968;2023-02-19T08:55:05;98484.53;;;10.71;66.56
49973;BME280;65693;49.798;10.968;2023-02-19T08:57:34;98488.81;;;10.73;66.40
49973;BME280;65693;49.798;10.968;2023-02-19T09:00:03;98499.50;;;10.72;66.49
49973;BME280;65693;49.798;10.968;2023-02-19T09:02:30;98489.75;;;10.72;66.24
49973;BME280;65693;49.798;10.968;2023-02-19T09:04:57;98501.19;;;10.73;66.52
49973;BME280;65693;49.798;10.968;2023-02-19T09:07:23;98508.31;;;10.72;66.35
49973;BME280;65693;49.798;10.968;2023-02-19T09:09:50;98512.81;;;10.70;66.22
49973;BME280;65693;49.798;10.968;2023-02-19T09:12:17;98519.84;;;10.71;66.48
49973;BME280;65693;49.798;10.968;2023-02-19T09:14:44;98526.06;;;10.70;66.41
49973;BME280;65693;49.798;10.968;2023-02-19T09:17:11;98531.38;;;10.70;66.40
49973;BME280;65693;49.798;10.968;2023-02-19T09:19:38;98536.69;;;10.70;66.41
49973;BME280;65693;49.798;10.968;2023-02-19T09:22:04;98550.81;;;10.71;66.30
49973;BME280;65693;49.798;10.968;2023-02-19T09:24:31;98541.97;;;10.70;66.40
49973;BME280;65693;49.798;10.968;2023-02-19T09:26:57;98547.28;;;10.70;66.42
49973;BME280;65693;49.798;10.968;2023-02-19T09:29:26;98542.94;;;10.69;66.52
49973;BME280;65693;49.798;10.968;2023-02-19T09:31:55;98553.44;;;10.71;66.30
49973;BME280;65693;49.798;10.968;2023-02-19T09:34:22;98562.28;;;10.71;66.42
49973;BME280;65693;49.798;10.968;2023-02-19T09:36:49;98561.47;;;10.69;66.47
49973;BME280;65693;49.798;10.968;2023-02-19T09:39:15;98549.16;;;10.68;66.23
49973;BME280;65693;49.798;10.968;2023-02-19T09:41:43;98558.91;;;10.67;66.34
49973;BME280;65693;49.798;10.968;2023-02-19T09:44:13;98555.22;;;10.70;66.25
49973;BME280;65693;49.798;10.968;2023-02-19T09:46:44;98555.41;;;10.67;66.27
49973;BME280;65693;49.798;10.968;2023-02-19T09:49:13;98558.06;;;10.67;66.42
49973;BME280;65693;49.798;10.968;2023-02-19T09:51:43;98559.78;;;10.68;66.15
49973;BME280;65693;49.798;10.968;2023-02-19T09:54:19;98566.94;;;10.66;66.50
49973;BME280;65693;49.798;10.968;2023-02-19T09:56:46;98564.28;;;10.66;66.31
49973;BME280;65693;49.798;10.968;2023-02-19T09:59:17;98561.56;;;10.67;66.26
49973;BME280;65693;49.798;10.968;2023-02-19T10:01:47;98555.50;;;10.65;66.34
49973;BME280;65693;49.798;10.968;2023-02-19T10:04:14;98558.22;;;10.64;66.21
49973;BME280;65693;49.798;10.968;2023-02-19T10:06:41;98555.69;;;10.62;66.47
49973;BME280;65693;49.798;10.968;2023-02-19T10:09:21;98570.72;;;10.62;66.41
49973;BME280;65693;49.798;10.968;2023-02-19T10:11:50;98564.47;;;10.63;66.42
49973;BME280;65693;49.798;10.968;2023-02-19T10:14:20;98569.97;;;10.60;66.51
49973;BME280;65693;49.798;10.968;2023-02-19T10:16:51;98585.69;;;10.63;66.52
49973;BME280;65693;49.798;10.968;2023-02-19T10:19:18;98593.63;;;10.63;66.18
49973;BME280;65693;49.798;10.968;2023-02-19T10:21:44;98593.63;;;10.63;66.29
49973;BME280;65693;49.798;10.968;2023-02-19T10:24:17;98590.13;;;10.62;66.32
49973;BME280;65693;49.798;10.968;2023-02-19T10:26:45;98596.38;;;10.61;66.10
49973;BME280;65693;49.798;10.968;2023-02-19T10:29:12;98598.94;;;10.63;66.08
49973;BME280;65693;49.798;10.968;2023-02-19T10:31:38;98600.81;;;10.61;66.24
49973;BME280;65693;49.798;10.968;2023-02-19T10:34:16;98603.47;;;10.61;66.12
49973;BME280;65693;49.798;10.968;2023-02-19T10:36:46;98606.22;;;10.59;66.34
49973;BME280;65693;49.798;10.968;2023-02-19T10:39:29;98605.34;;;10.59;66.51
49973;BME280;65693;49.798;10.968;2023-02-19T10:42:00;98615.88;;;10.60;66.32
49973;BME280;65693;49.798;10.968;2023-02-19T10:44:29;98615.88;;;10.60;65.85
49973;BME280;65693;49.798;10.968;2023-02-19T10:46:58;98616.13;;;10.56;66.39
49973;BME280;65693;49.798;10.968;2023-02-19T10:49:30;98619.56;;;10.58;66.16
49973;BME280;65693;49.798;10.968;2023-02-19T10:52:00;98620.50;;;10.57;66.25
49973;BME280;65693;49.798;10.968;2023-02-19T10:54:31;98622.28;;;10.56;66.28
49973;BME280;65693;49.798;10.968;2023-02-19T10:57:15;98616.03;;;10.57;66.30
49973;BME280;65693;49.798;10.968;2023-02-19T10:59:51;98614.44;;;10.54;66.45
49973;BME280;65693;49.798;10.968;2023-02-19T11:02:19;98611.78;;;10.54;66.54
49973;BME280;65693;49.798;10.968;2023-02-19T11:05:05;98618.88;;;10.54;66.40
49973;BME280;65693;49.798;10.968;2023-02-19T11:07:43;98615.19;;;10.57;66.20
49973;BME280;65693;49.798;10.968;2023-02-19T11:10:20;98608.94;;;10.58;66.15
49973;BME280;65693;49.798;10.968;2023-02-19T11:12:48;98613.31;;;10.59;66.05
49973;BME280;65693;49.798;10.968;2023-02-19T11:15:19;98606.31;;;10.58;66.30
49973;BME280;65693;49.798;10.968;2023-02-19T11:17:53;98619.72;;;10.54;66.21
49973;BME280;65693;49.798;10.968;2023-02-19T11:20:21;98610.84;;;10.56;66.14
49973;BME280;65693;49.798;10.968;2023-02-19T11:22:48;98618.78;;;10.56;66.10
49973;BME280;65693;49.798;10.968;2023-02-19T11:25:19;98619.63;;;10.56;66.20
49973;BME280;65693;49.798;10.968;2023-02-19T11:27:54;98633.69;;;10.58;66.14
49973;BME280;65693;49.798;10.968;2023-02-19T11:30:31;98630.16;;;10.58;66.17
49973;BME280;65693;49.798;10.968;2023-02-19T11:33:12;98626.56;;;10.59;66.18
49973;BME280;65693;49.798;10.968;2023-02-19T11:35:46;98623.91;;;10.59;66.25
49973;BME280;65693;49.798;10.968;2023-02-19T11:38:14;98637.16;;;10.59;66.08
49973;BME280;65693;49.798;10.968;2023-02-19T11:40:44;98641.53;;;10.60;66.12
49973;BME280;65693;49.798;10.968;2023-02-19T11:43:25;98647.75;;;10.59;66.33
49973;BME280;65693;49.798;10.968;2023-02-19T11:46:01;98630.91;;;10.60;66.10
49973;BME280;65693;49.798;10.968;2023-02-19T11:48:38;98634.50;;;10.59;66.31
49973;BME280;65693;49.798;10.968;2023-02-19T11:51:26;98649.56;;;10.58;65.94
49973;BME280;65693;49.798;10.968;2023-02-19T11:54:10;98648.03;;;10.54;66.32
49973;BME280;65693;49.798;10.968;2023-02-19T11:56:40;98655.91;;;10.56;66.23
49973;BME280;65693;49.798;10.968;2023-02-19T11:59:16;98659.50;;;10.54;66.11
49973;BME280;65693;49.798;10.968;2023-02-19T12:02:20;98659.50;;;10.54;66.42
49973;BME280;65693;49.798;10.968;2023-02-19T12:05:06;98677.16;;;10.54;66.26
49973;BME280;65693;49.798;10.968;2023-02-19T12:08:20;98664.78;;;10.54;66.31
49973;BME280;65693;49.798;10.968;2023-02-19T12:11:02;98662.22;;;10.53;66.39
49973;BME280;65693;49.798;10.968;2023-02-19T12:13:48;98657.78;;;10.53;66.21
49973;BME280;65693;49.798;10.968;2023-02-19T12:16:22;98655.13;;;10.53;66.25
49973;BME280;65693;49.798;10.968;2023-02-19T12:19:09;98656.91;;;10.53;66.41
49973;BME280;65693;49.798;10.968;2023-02-19T12:22:05;98654.25;;;10.53;66.08
49973;BME280;65693;49.798;10.968;2023-02-19T12:24:58;98654.19;;;10.54;66.16
49973;BME280;65693;49.798;10.968;2023-02-19T12:27:42;98654.25;;;10.53;66.43
49973;BME280;65693;49.798;10.968;2023-02-19T12:30:25;98659.56;;;10.53;66.25
49973;BME280;65693;49.798;10.968;2023-02-19T12:33:13;98662.22;;;10.53;66.17
49973;BME280;65693;49.798;10.968;2023-02-19T12:35:55;98666.69;;;10.52;66.27
49973;BME280;65693;49.798;10.968;2023-02-19T12:38:29;98669.47;;;10.49;66.49
49973;BME280;65693;49.798;10.968;2023-02-19T12:41:23;98664.16;;;10.49;66.36
49973;BME280;65693;49.798;10.968;2023-02-19T12:43:55;98670.28;;;10.51;66.52
49973;BME280;65693;49.798;10.968;2023-02-19T12:46:29;98681.63;;;10.53;66.23
49973;BME280;65693;49.798;10.968;2023-02-19T12:49:00;98682.47;;;10.54;66.32
49973;BME280;65693;49.798;10.968;2023-02-19T12:51:32;98677.41;;;10.49;66.35
49973;BME280;65693;49.798;10.968;2023-02-19T12:54:05;98684.28;;;10.53;66.28
49973;BME280;65693;49.798;10.968;2023-02-19T12:56:39;98673.75;;;10.52;66.17
49973;BME280;65693;49.798;10.968;2023-02-19T12:59:10;98681.63;;;10.53;66.06
49973;BME280;65693;49.798;10.968;2023-02-19T13:01:44;98666.56;;;10.54;66.39
49973;BME280;65693;49.798;10.968;2023-02-19T13:04:21;98671.09;;;10.52;66.35
49973;BME280;65693;49.798;10.968;2023-02-19T13:06:52;98670.16;;;10.53;66.31
49973;BME280;65693;49.798;10.968;2023-02-19T13:09:25;98663.91;;;10.54;66.34
49973;BME280;65693;49.798;10.968;2023-02-19T13:11:58;98662.03;;;10.56;66.29